Centralia, Centralia Municipal Airport (KENL)

NameCentralia Municipal Airport
CityCentralia
CountryUnited States
ICAOKENL
IATAENL
Altitude163 m
CoordinatesGoogle Map
Live Air TrafficLiveATC.net
METARKENL 202255Z AUTO 20010KT 10SM SCT039 OVC060 10/07 A3000 RMK AO2 T00980065
2019-03-20 22:55:00 Wind: South (200°) 5.14 m/s - Visibility: 16093.4 m - Temperature: 10 °C - Dew point: 7 °C - Humidity: 81.8% - Pressure: 1015.92 hPa
Statistics

The table below shows the detailed information of all flights to/from Centralia, Centralia Municipal Airport (KENL).